Time;durP1;ratioP1;P1;durP2;ratioP2;P2;SDS_P1;SDS_P2;PMS_P1;PMS_P2;Temp;Humidity;BMP_temperature;BMP_pressure;BME280_temperature;BME280_humidity;BME280_pressure;Samples;Min_cycle;Max_cycle;Signal;HPM_P1;HPM_P2
2021/01/28 00:01:32;;;;;;;;;;;3.80;99.90;;;;;;4999196;28;19956;-77
2021/01/28 00:03:58;;;;;;;;;;;3.80;99.90;;;;;;4999765;28;19910;-77
2021/01/28 00:06:26;;;;;;;;;;;3.80;99.90;;;;;;5016021;28;19945;-77
2021/01/28 00:08:52;;;;;;;;;;;3.90;99.90;;;;;;4998722;28;19937;-76
2021/01/28 00:11:17;;;;;;;;;;;3.80;99.90;;;;;;4996164;28;19910;-72
2021/01/28 00:13:42;;;;;;;;;;;3.80;99.90;;;;;;4993681;28;19949;-75
2021/01/28 00:16:08;;;;;;;;;;;3.80;99.90;;;;;;4992452;28;19914;-74
2021/01/28 00:18:34;;;;;;;;;;;3.80;99.90;;;;;;4990825;28;20273;-72
2021/01/28 00:20:59;;;;;;;;;;;3.70;99.90;;;;;;4993824;28;20297;-74
2021/01/28 00:23:25;;;;;;;;;;;3.70;99.90;;;;;;5000449;28;19913;-75
2021/01/28 00:25:50;;;;;;;;;;;3.70;99.90;;;;;;4996455;28;20277;-74
2021/01/28 00:28:17;;;;;;;;;;;3.70;99.90;;;;;;5009480;28;20375;-74
2021/01/28 00:30:44;;;;;;;;;;;3.70;99.90;;;;;;5016236;28;19906;-75
2021/01/28 00:33:10;;;;;;;;;;;3.80;99.90;;;;;;5015358;28;19906;-75
2021/01/28 00:35:37;;;;;;;;;;;3.80;99.90;;;;;;5015737;28;19917;-76
2021/01/28 00:38:04;;;;;;;;;;;3.80;99.90;;;;;;5019258;28;19913;-75
2021/01/28 00:40:30;;;;;;;;;;;3.90;99.90;;;;;;5005267;28;20361;-74
2021/01/28 00:42:55;;;;;;;;;;;3.90;99.90;;;;;;4994954;28;19914;-73
2021/01/28 00:45:22;;;;;;;;;;;3.80;99.90;;;;;;5000819;28;19910;-72
2021/01/28 00:47:48;;;;;;;;;;;3.80;99.90;;;;;;4999753;28;19933;-73
2021/01/28 00:50:14;;;;;;;;;;;3.80;99.90;;;;;;4999430;28;19921;-74
2021/01/28 00:52:40;;;;;;;;;;;3.80;99.90;;;;;;5001574;28;19972;-73
2021/01/28 00:55:07;;;;;;;;;;;3.80;99.90;;;;;;4997135;28;19917;-72
2021/01/28 00:57:33;;;;;;;;;;;3.80;99.90;;;;;;4993335;28;20389;-74
2021/01/28 00:59:58;;;;;;;;;;;3.90;99.90;;;;;;4990479;28;19921;-73
2021/01/28 01:02:23;;;;;;;;;;;3.90;99.90;;;;;;4991771;28;19910;-74
2021/01/28 01:04:49;;;;;;;;;;;3.90;99.90;;;;;;4993753;28;19931;-73
2021/01/28 01:07:14;;;;;;;;;;;4.00;99.90;;;;;;4994944;28;19906;-74
2021/01/28 01:09:40;;;;;;;;;;;4.00;99.90;;;;;;4995650;28;20415;-74
2021/01/28 01:12:05;;;;;;;;;;;4.00;99.90;;;;;;5009606;28;20000;-74
2021/01/28 01:14:31;;;;;;;;;;;4.00;99.90;;;;;;5016111;28;19944;-74
2021/01/28 01:16:56;;;;;;;;;;;4.00;99.90;;;;;;5015237;28;19906;-73
2021/01/28 01:19:22;;;;;;;;;;;4.00;99.90;;;;;;5014662;28;20555;-73
2021/01/28 01:21:47;;;;;;;;;;;4.10;99.90;;;;;;5015686;28;19934;-76
2021/01/28 01:24:13;;;;;;;;;;;4.10;99.90;;;;;;5006580;28;20301;-74
2021/01/28 01:26:38;;;;;;;;;;;4.10;99.90;;;;;;4995523;28;20021;-74
2021/01/28 01:29:04;;;;;;;;;;;4.30;99.90;;;;;;5004423;28;19906;-72
2021/01/28 01:31:29;;;;;;;;;;;4.40;99.90;;;;;;4998108;28;19912;-72
2021/01/28 01:33:55;;;;;;;;;;;4.20;99.90;;;;;;4995254;28;19905;-73
2021/01/28 01:36:21;;;;;;;;;;;4.40;99.90;;;;;;4993467;28;19912;-74
2021/01/28 01:38:47;;;;;;;;;;;4.40;99.90;;;;;;4993551;28;19906;-73
2021/01/28 01:41:12;;;;;;;;;;;4.30;99.90;;;;;;4993568;28;19906;-73
2021/01/28 01:43:38;;;;;;;;;;;4.30;99.90;;;;;;4994437;28;20449;-73
2021/01/28 01:46:05;;;;;;;;;;;4.20;99.90;;;;;;4994575;28;19913;-73
2021/01/28 01:48:39;;;;;;;;;;;4.10;99.90;;;;;;4980621;28;19959;-73
2021/01/28 01:51:12;;;;;;;;;;;4.10;99.90;;;;;;4987432;28;19909;-73
2021/01/28 01:53:44;;;;;;;;;;;4.20;99.90;;;;;;4990899;28;19909;-73
2021/01/28 01:56:09;;;;;;;;;;;4.30;99.90;;;;;;4994024;28;19906;-73
2021/01/28 01:58:47;;;;;;;;;;;4.20;99.90;;;;;;4996782;28;19909;-72
2021/01/28 02:01:12;;;;;;;;;;;4.20;99.90;;;;;;4994119;28;20373;-72
2021/01/28 02:03:39;;;;;;;;;;;4.20;99.90;;;;;;5007546;28;19902;-73
2021/01/28 02:06:16;;;;;;;;;;;4.10;99.90;;;;;;5015821;28;19910;-73
2021/01/28 02:08:44;;;;;;;;;;;4.20;99.90;;;;;;5014403;28;20345;-72
2021/01/28 02:11:10;;;;;;;;;;;4.20;99.90;;;;;;5002129;28;20357;-74
2021/01/28 02:13:36;;;;;;;;;;;4.20;99.90;;;;;;5001331;28;19913;-73
2021/01/28 02:16:01;;;;;;;;;;;4.30;99.90;;;;;;5001431;28;19913;-74
2021/01/28 02:18:28;;;;;;;;;;;4.30;99.90;;;;;;5000977;28;19928;-74
2021/01/28 02:20:53;;;;;;;;;;;4.40;99.90;;;;;;5001482;28;19906;-73
2021/01/28 02:23:42;;;;;;;;;;;4.30;99.90;;;;;;5001432;28;19933;-74
2021/01/28 02:26:08;;;;;;;;;;;4.30;99.90;;;;;;4999184;28;19909;-73
2021/01/28 02:28:34;;;;;;;;;;;4.30;99.90;;;;;;5006463;28;19964;-72
2021/01/28 02:31:00;;;;;;;;;;;4.20;99.90;;;;;;5002273;28;19906;-72
2021/01/28 02:33:36;;;;;;;;;;;4.20;99.90;;;;;;4995819;28;19914;-73
2021/01/28 02:36:01;;;;;;;;;;;4.30;99.90;;;;;;5000069;28;19913;-73
2021/01/28 02:38:27;;;;;;;;;;;4.30;99.90;;;;;;4996526;28;19976;-73
2021/01/28 02:40:52;;;;;;;;;;;4.30;99.90;;;;;;4997691;28;20396;-73
2021/01/28 02:43:18;;;;;;;;;;;4.30;99.90;;;;;;5009255;28;19936;-73
2021/01/28 02:45:43;;;;;;;;;;;4.40;99.90;;;;;;5004090;28;19944;-73
2021/01/28 02:48:11;;;;;;;;;;;4.40;99.90;;;;;;5002979;28;19910;-73
2021/01/28 02:50:37;;;;;;;;;;;4.40;99.90;;;;;;5010185;28;19944;-72
2021/01/28 02:53:03;;;;;;;;;;;4.40;99.90;;;;;;4997536;28;19918;-72
2021/01/28 02:55:31;;;;;;;;;;;4.40;99.90;;;;;;4995167;28;19917;-73
2021/01/28 02:57:56;;;;;;;;;;;4.40;99.90;;;;;;4998720;28;19909;-72
2021/01/28 03:00:33;;;;;;;;;;;4.40;99.90;;;;;;4996845;28;19909;-73
2021/01/28 03:03:01;;;;;;;;;;;4.50;99.90;;;;;;5000886;28;19957;-73
2021/01/28 03:05:26;;;;;;;;;;;4.50;99.90;;;;;;5001607;28;19932;-74
2021/01/28 03:07:52;;;;;;;;;;;4.50;99.90;;;;;;5014177;28;19910;-75
2021/01/28 03:10:21;;;;;;;;;;;4.50;99.90;;;;;;5000131;28;19910;-72
2021/01/28 03:12:47;;;;;;;;;;;4.40;99.90;;;;;;4999200;28;19910;-72
2021/01/28 03:15:13;;;;;;;;;;;4.50;99.90;;;;;;4996181;28;19972;-72
2021/01/28 03:17:39;;;;;;;;;;;4.70;99.90;;;;;;4996144;28;19917;-73
2021/01/28 03:20:06;;;;;;;;;;;4.60;99.90;;;;;;4997535;28;19918;-73
2021/01/28 03:22:31;;;;;;;;;;;4.60;99.90;;;;;;4992665;28;20380;-74
2021/01/28 03:24:57;;;;;;;;;;;4.70;99.90;;;;;;4992946;28;19910;-75
2021/01/28 03:27:22;;;;;;;;;;;4.70;99.90;;;;;;4995645;28;20423;-73
2021/01/28 03:29:47;;;;;;;;;;;4.70;99.90;;;;;;4997368;28;19909;-73
2021/01/28 03:32:13;;;;;;;;;;;4.80;99.90;;;;;;5000159;28;19928;-72
2021/01/28 03:34:38;;;;;;;;;;;4.80;99.90;;;;;;4994377;28;19968;-72
2021/01/28 03:37:04;;;;;;;;;;;4.80;99.90;;;;;;4989275;28;20476;-73
2021/01/28 03:39:29;;;;;;;;;;;4.80;99.90;;;;;;4991970;28;19920;-73
2021/01/28 03:41:55;;;;;;;;;;;4.90;99.90;;;;;;4991212;28;20008;-73
2021/01/28 03:44:20;;;;;;;;;;;4.80;99.90;;;;;;4990562;28;19914;-73
2021/01/28 03:46:46;;;;;;;;;;;4.80;99.90;;;;;;4992454;28;19917;-72
2021/01/28 03:49:11;;;;;;;;;;;4.90;99.90;;;;;;5001237;28;19913;-72
2021/01/28 03:51:37;;;;;;;;;;;4.80;99.90;;;;;;4993361;28;19910;-72
2021/01/28 03:54:02;;;;;;;;;;;4.80;99.90;;;;;;4988468;28;19964;-72
2021/01/28 03:56:28;;;;;;;;;;;4.70;99.90;;;;;;4995395;28;20416;-72
2021/01/28 03:58:53;;;;;;;;;;;4.70;99.90;;;;;;4994065;28;19909;-72
2021/01/28 04:01:19;;;;;;;;;;;4.90;99.90;;;;;;4992360;28;20388;-72
2021/01/28 04:03:44;;;;;;;;;;;4.80;99.90;;;;;;4992056;28;19996;-72
2021/01/28 04:06:10;;;;;;;;;;;4.80;99.90;;;;;;4991211;28;19909;-72
2021/01/28 04:08:35;;;;;;;;;;;4.70;99.90;;;;;;4990477;28;20377;-74
2021/01/28 04:11:01;;;;;;;;;;;4.70;99.90;;;;;;4985883;28;19918;-72
2021/01/28 04:13:26;;;;;;;;;;;4.80;99.90;;;;;;4994191;28;19992;-73
2021/01/28 04:15:52;;;;;;;;;;;4.80;99.90;;;;;;4993990;28;20385;-73
2021/01/28 04:18:18;;;;;;;;;;;4.70;99.90;;;;;;4994898;28;19992;-75
2021/01/28 04:20:44;;;;;;;;;;;4.80;99.90;;;;;;4986195;28;19910;-73
2021/01/28 04:23:09;;;;;;;;;;;4.80;99.90;;;;;;4993472;28;20337;-74
2021/01/28 04:25:35;;;;;;;;;;;4.80;99.90;;;;;;4994912;28;20369;-73
2021/01/28 04:28:01;;;;;;;;;;;4.70;99.90;;;;;;4992645;28;19918;-73
2021/01/28 04:30:28;;;;;;;;;;;4.70;99.90;;;;;;4990369;28;19914;-74
2021/01/28 04:32:53;;;;;;;;;;;4.80;99.90;;;;;;4991779;28;19910;-73
2021/01/28 04:35:19;;;;;;;;;;;4.80;99.90;;;;;;4986921;28;20001;-75
2021/01/28 04:37:44;;;;;;;;;;;4.80;99.90;;;;;;4994560;28;20388;-73
2021/01/28 04:40:24;;;;;;;;;;;4.80;99.90;;;;;;4994074;28;20281;-73
2021/01/28 04:42:49;;;;;;;;;;;4.80;99.90;;;;;;4993779;28;20004;-73
2021/01/28 04:45:19;;;;;;;;;;;4.80;99.90;;;;;;4994791;28;19945;-73
2021/01/28 04:47:49;;;;;;;;;;;4.90;99.90;;;;;;5004244;28;19916;-73
2021/01/28 04:50:19;;;;;;;;;;;4.90;99.90;;;;;;5013901;28;19914;-73
2021/01/28 04:52:45;;;;;;;;;;;4.80;99.90;;;;;;4997631;28;20431;-73
2021/01/28 04:55:12;;;;;;;;;;;4.80;99.90;;;;;;4998455;28;19909;-73
2021/01/28 04:57:38;;;;;;;;;;;4.80;99.90;;;;;;5000608;28;20362;-72
2021/01/28 05:00:04;;;;;;;;;;;4.80;99.90;;;;;;4995101;28;19917;-72
2021/01/28 05:02:29;;;;;;;;;;;4.80;99.90;;;;;;4998638;28;20465;-73
2021/01/28 05:04:59;;;;;;;;;;;4.80;99.90;;;;;;4995474;28;19917;-73
2021/01/28 05:07:32;;;;;;;;;;;4.80;99.90;;;;;;4993372;28;19910;-74
2021/01/28 05:10:04;;;;;;;;;;;4.70;99.90;;;;;;4994537;28;19933;-74
2021/01/28 05:12:29;;;;;;;;;;;4.70;99.90;;;;;;4998584;28;19917;-73
2021/01/28 05:15:09;;;;;;;;;;;4.70;99.90;;;;;;5001952;28;20012;-73
2021/01/28 05:17:36;;;;;;;;;;;4.70;99.90;;;;;;4997785;28;20080;-73
2021/01/28 05:20:02;;;;;;;;;;;4.80;99.90;;;;;;4997455;28;19921;-73
2021/01/28 05:22:32;;;;;;;;;;;4.80;99.90;;;;;;5011449;28;19910;-72
2021/01/28 05:25:00;;;;;;;;;;;4.80;99.90;;;;;;5010117;28;19925;-73
2021/01/28 05:27:26;;;;;;;;;;;4.80;99.90;;;;;;5001904;28;19916;-73
2021/01/28 05:29:52;;;;;;;;;;;4.80;99.90;;;;;;4996667;28;19909;-73
2021/01/28 05:32:38;;;;;;;;;;;4.80;99.90;;;;;;4993770;28;19910;-73
2021/01/28 05:35:22;;;;;;;;;;;4.80;99.90;;;;;;4995645;28;19914;-73
2021/01/28 05:37:49;;;;;;;;;;;4.90;99.90;;;;;;4995649;28;19916;-72
2021/01/28 05:40:17;;;;;;;;;;;4.90;99.90;;;;;;5001084;28;20284;-72
2021/01/28 05:42:43;;;;;;;;;;;4.90;99.90;;;;;;4987634;28;19913;-72
2021/01/28 05:45:27;;;;;;;;;;;4.90;99.90;;;;;;4991833;28;20389;-74
2021/01/28 05:47:53;;;;;;;;;;;4.80;99.90;;;;;;4990452;28;20348;-73
2021/01/28 05:50:23;;;;;;;;;;;4.80;99.90;;;;;;4992159;28;19960;-74
2021/01/28 05:52:49;;;;;;;;;;;4.90;99.90;;;;;;4994016;28;19909;-73
2021/01/28 05:55:18;;;;;;;;;;;4.90;99.90;;;;;;4997888;28;19993;-73
2021/01/28 05:57:49;;;;;;;;;;;4.90;99.90;;;;;;4994635;28;19906;-73
2021/01/28 06:00:15;;;;;;;;;;;4.80;99.90;;;;;;4998627;28;19910;-73
2021/01/28 06:02:46;;;;;;;;;;;4.80;99.90;;;;;;4995362;28;20012;-73
2021/01/28 06:05:21;;;;;;;;;;;4.80;99.90;;;;;;4990118;28;19910;-73
2021/01/28 06:07:55;;;;;;;;;;;4.90;99.90;;;;;;4991864;28;19964;-73
2021/01/28 06:10:27;;;;;;;;;;;4.90;99.90;;;;;;4993779;28;19914;-73
2021/01/28 06:13:08;;;;;;;;;;;4.90;99.90;;;;;;4991399;28;20309;-73
2021/01/28 06:15:36;;;;;;;;;;;4.90;99.90;;;;;;4995666;28;19910;-73
2021/01/28 06:18:14;;;;;;;;;;;4.90;99.90;;;;;;4995734;28;19925;-74
2021/01/28 06:20:47;;;;;;;;;;;4.90;99.90;;;;;;5009193;28;20183;-73
2021/01/28 06:23:15;;;;;;;;;;;4.90;99.90;;;;;;5006239;28;19921;-73
2021/01/28 06:25:59;;;;;;;;;;;4.90;99.90;;;;;;4993898;28;20329;-73
2021/01/28 06:28:44;;;;;;;;;;;4.80;99.90;;;;;;4997104;28;19964;-73
2021/01/28 06:31:09;;;;;;;;;;;4.80;99.90;;;;;;4992498;28;19920;-73
2021/01/28 06:33:46;;;;;;;;;;;4.80;99.90;;;;;;4992996;28;20001;-72
2021/01/28 06:36:17;;;;;;;;;;;4.80;99.90;;;;;;4992856;28;19921;-73
2021/01/28 06:38:47;;;;;;;;;;;4.80;99.90;;;;;;4993228;28;19909;-73
2021/01/28 06:41:14;;;;;;;;;;;4.80;99.90;;;;;;4984942;28;19910;-72
2021/01/28 06:43:39;;;;;;;;;;;4.80;99.90;;;;;;4992663;28;19921;-72
2021/01/28 06:46:13;;;;;;;;;;;4.70;99.90;;;;;;4993444;28;19910;-75
2021/01/28 06:48:41;;;;;;;;;;;4.80;99.90;;;;;;4982104;28;19964;-72
2021/01/28 06:51:19;;;;;;;;;;;4.80;99.90;;;;;;4983169;28;19909;-72
2021/01/28 06:53:53;;;;;;;;;;;4.90;99.90;;;;;;4992134;28;20014;-72
2021/01/28 06:56:31;;;;;;;;;;;4.90;99.90;;;;;;4992586;28;19921;-72
2021/01/28 06:59:15;;;;;;;;;;;4.80;99.90;;;;;;4991319;28;19985;-72
2021/01/28 07:02:00;;;;;;;;;;;4.80;99.90;;;;;;4999388;28;20392;-72
2021/01/28 07:04:57;;;;;;;;;;;4.90;99.90;;;;;;4993954;28;19910;-73
2021/01/28 07:07:24;;;;;;;;;;;4.80;99.90;;;;;;4960251;28;19926;-74
2021/01/28 07:09:52;;;;;;;;;;;4.80;99.90;;;;;;4992179;28;19906;-76
2021/01/28 07:12:20;;;;;;;;;;;4.80;99.90;;;;;;4988086;28;19944;-73
2021/01/28 07:14:49;;;;;;;;;;;4.90;99.90;;;;;;4983871;28;19968;-73
2021/01/28 07:17:22;;;;;;;;;;;4.80;99.90;;;;;;4991773;28;19939;-73
2021/01/28 07:20:00;;;;;;;;;;;4.80;99.90;;;;;;4983464;28;20358;-74
2021/01/28 07:22:25;;;;;;;;;;;4.90;99.90;;;;;;4995439;28;20004;-74
2021/01/28 07:24:51;;;;;;;;;;;4.90;99.90;;;;;;4991562;28;19953;-73
2021/01/28 07:27:18;;;;;;;;;;;4.90;99.90;;;;;;4977953;28;19913;-74
2021/01/28 07:29:44;;;;;;;;;;;4.90;99.90;;;;;;4990729;28;19956;-74
2021/01/28 07:32:10;;;;;;;;;;;5.00;99.90;;;;;;4981565;28;19906;-72
2021/01/28 07:34:36;;;;;;;;;;;5.10;99.90;;;;;;4989948;28;19917;-73
2021/01/28 07:37:34;;;;;;;;;;;5.20;99.90;;;;;;4988187;28;19910;-72
2021/01/28 07:39:59;;;;;;;;;;;5.20;99.90;;;;;;4970556;28;19910;-72
2021/01/28 07:42:25;;;;;;;;;;;5.10;99.90;;;;;;4981419;28;19917;-73
2021/01/28 07:44:53;;;;;;;;;;;5.10;99.90;;;;;;4989910;28;19906;-74
2021/01/28 07:47:33;;;;;;;;;;;5.10;99.90;;;;;;4989741;28;19916;-73
2021/01/28 07:50:18;;;;;;;;;;;5.10;99.90;;;;;;4991440;28;20001;-73
2021/01/28 07:52:44;;;;;;;;;;;5.10;99.90;;;;;;4988157;28;19914;-73
2021/01/28 07:55:28;;;;;;;;;;;5.10;99.90;;;;;;4997063;28;20388;-73
2021/01/28 07:57:54;;;;;;;;;;;5.10;99.90;;;;;;5002758;28;19929;-75
2021/01/28 08:00:20;;;;;;;;;;;5.00;99.90;;;;;;5019004;28;19925;-72
2021/01/28 08:02:59;;;;;;;;;;;5.10;99.90;;;;;;5016325;28;20012;-73
2021/01/28 08:05:25;;;;;;;;;;;5.00;99.90;;;;;;4988511;28;19925;-73
2021/01/28 08:08:10;;;;;;;;;;;5.10;99.90;;;;;;4994175;28;19910;-74
2021/01/28 08:10:37;;;;;;;;;;;5.00;99.90;;;;;;4990209;28;19956;-75
2021/01/28 08:13:08;;;;;;;;;;;5.00;99.90;;;;;;4997417;28;19914;-73
2021/01/28 08:15:39;;;;;;;;;;;5.00;99.90;;;;;;4997073;28;20373;-73
2021/01/28 08:18:11;;;;;;;;;;;5.10;99.90;;;;;;4986042;28;19964;-74
2021/01/28 08:20:37;;;;;;;;;;;5.10;99.90;;;;;;4989033;28;19906;-73
2021/01/28 08:23:06;;;;;;;;;;;5.10;99.90;;;;;;4996192;28;19941;-74
2021/01/28 08:25:34;;;;;;;;;;;5.10;99.90;;;;;;4988729;28;20393;-72
2021/01/28 08:28:06;;;;;;;;;;;5.10;99.90;;;;;;4990876;28;20396;-74
2021/01/28 08:30:32;;;;;;;;;;;5.10;99.90;;;;;;4994288;28;19909;-74
2021/01/28 08:32:58;;;;;;;;;;;5.10;99.90;;;;;;5008017;28;19909;-72
2021/01/28 08:35:30;;;;;;;;;;;5.20;99.90;;;;;;5006994;28;19917;-74
2021/01/28 08:38:14;;;;;;;;;;;5.20;99.90;;;;;;4990608;28;19916;-74
2021/01/28 08:40:41;;;;;;;;;;;5.30;99.90;;;;;;4994986;28;20010;-74
2021/01/28 08:43:18;;;;;;;;;;;5.30;99.90;;;;;;4997510;28;19910;-73
2021/01/28 08:45:43;;;;;;;;;;;5.30;99.90;;;;;;4999244;28;19910;-74
2021/01/28 08:48:14;;;;;;;;;;;5.20;99.90;;;;;;4982796;28;20396;-73
2021/01/28 08:50:40;;;;;;;;;;;5.30;99.90;;;;;;4991876;28;20005;-72
2021/01/28 08:53:06;;;;;;;;;;;5.40;99.90;;;;;;4982037;28;19918;-73
2021/01/28 08:55:35;;;;;;;;;;;5.50;99.90;;;;;;4990681;28;19917;-73
2021/01/28 08:58:05;;;;;;;;;;;5.50;99.90;;;;;;4987986;28;19917;-72
2021/01/28 09:00:31;;;;;;;;;;;5.60;99.90;;;;;;4992136;28;20324;-75
2021/01/28 09:02:57;;;;;;;;;;;5.60;99.90;;;;;;4997826;28;19917;-73
2021/01/28 09:05:25;;;;;;;;;;;5.70;99.90;;;;;;4997803;28;19910;-73
2021/01/28 09:07:55;;;;;;;;;;;5.80;99.90;;;;;;4991744;28;19937;-73
2021/01/28 09:10:23;;;;;;;;;;;5.80;99.90;;;;;;4999840;28;19941;-74
2021/01/28 09:12:49;;;;;;;;;;;5.90;99.90;;;;;;4991774;28;19937;-72
2021/01/28 09:15:19;;;;;;;;;;;6.00;99.90;;;;;;4997574;28;20333;-74
2021/01/28 09:17:45;;;;;;;;;;;6.00;99.90;;;;;;4988884;28;19931;-75
2021/01/28 09:20:31;;;;;;;;;;;5.90;99.90;;;;;;4988387;28;20380;-73
2021/01/28 09:23:09;;;;;;;;;;;6.00;99.90;;;;;;4990917;28;19913;-74
2021/01/28 09:25:35;;;;;;;;;;;6.10;99.90;;;;;;4994148;28;20008;-73
2021/01/28 09:28:02;;;;;;;;;;;6.10;99.90;;;;;;4980969;28;19913;-73
2021/01/28 09:30:34;;;;;;;;;;;6.10;99.90;;;;;;4992208;28;19938;-73
2021/01/28 09:33:00;;;;;;;;;;;6.10;99.90;;;;;;4982761;28;19910;-72
2021/01/28 09:35:26;;;;;;;;;;;6.10;99.90;;;;;;4992972;28;19960;-73
2021/01/28 09:38:01;;;;;;;;;;;6.20;99.90;;;;;;4978904;28;20074;-73
2021/01/28 09:40:35;;;;;;;;;;;6.20;99.90;;;;;;4992233;28;19906;-73
2021/01/28 09:43:17;;;;;;;;;;;6.30;99.90;;;;;;4990482;28;19914;-73
2021/01/28 09:45:59;;;;;;;;;;;6.30;99.90;;;;;;4984303;28;20369;-73
2021/01/28 09:48:25;;;;;;;;;;;6.30;99.90;;;;;;4985156;28;19960;-73
2021/01/28 09:50:50;;;;;;;;;;;6.20;99.90;;;;;;4983005;28;19913;-73
2021/01/28 09:53:16;;;;;;;;;;;6.20;99.90;;;;;;4995688;28;19912;-72
2021/01/28 09:55:41;;;;;;;;;;;6.20;99.90;;;;;;4994763;28;19961;-72
2021/01/28 09:58:07;;;;;;;;;;;6.30;99.90;;;;;;4995996;28;19920;-73
2021/01/28 10:00:33;;;;;;;;;;;6.30;99.90;;;;;;4989839;28;19916;-73
2021/01/28 10:02:59;;;;;;;;;;;6.40;99.90;;;;;;5005137;28;20302;-74
2021/01/28 10:05:26;;;;;;;;;;;6.30;99.90;;;;;;4994755;28;19910;-73
2021/01/28 10:07:52;;;;;;;;;;;6.30;99.90;;;;;;4996556;28;19929;-72
2021/01/28 10:10:19;;;;;;;;;;;6.40;99.90;;;;;;4989502;28;19910;-73
2021/01/28 10:12:45;;;;;;;;;;;6.40;99.90;;;;;;4995075;28;19913;-71
2021/01/28 10:15:11;;;;;;;;;;;6.50;99.90;;;;;;4993200;28;19949;-72
2021/01/28 10:17:37;;;;;;;;;;;6.50;99.90;;;;;;4990343;28;19906;-74
2021/01/28 10:20:06;;;;;;;;;;;6.50;99.90;;;;;;4992194;28;19984;-72
2021/01/28 10:22:34;;;;;;;;;;;6.50;99.90;;;;;;4989253;28;19937;-72
2021/01/28 10:25:02;;;;;;;;;;;6.60;99.90;;;;;;4990283;28;19936;-74
2021/01/28 10:27:27;;;;;;;;;;;6.70;99.90;;;;;;5010434;28;19912;-72
2021/01/28 10:29:53;;;;;;;;;;;6.70;99.90;;;;;;5017164;28;19905;-73
2021/01/28 10:32:18;;;;;;;;;;;6.70;99.90;;;;;;4998692;28;19913;-74
2021/01/28 10:34:43;;;;;;;;;;;6.80;99.90;;;;;;5001274;28;19965;-73
2021/01/28 10:37:09;;;;;;;;;;;6.90;99.90;;;;;;4982065;28;19941;-74
2021/01/28 10:39:35;;;;;;;;;;;6.90;99.90;;;;;;4998391;28;20263;-73
2021/01/28 10:42:01;;;;;;;;;;;6.90;99.90;;;;;;4998356;28;19911;-72
2021/01/28 10:44:26;;;;;;;;;;;6.90;99.90;;;;;;4987133;28;19910;-73
2021/01/28 10:46:52;;;;;;;;;;;7.00;99.90;;;;;;4997410;28;20021;-73
2021/01/28 10:49:18;;;;;;;;;;;7.00;99.90;;;;;;4995072;28;20370;-72
2021/01/28 10:51:44;;;;;;;;;;;7.10;99.90;;;;;;4978599;28;19930;-74
2021/01/28 10:54:10;;;;;;;;;;;7.00;99.90;;;;;;4999326;28;19914;-72
2021/01/28 10:56:35;;;;;;;;;;;7.10;99.90;;;;;;4990080;28;19921;-74
2021/01/28 10:59:01;;;;;;;;;;;7.10;99.90;;;;;;4996245;28;19975;-74
2021/01/28 11:01:26;;;;;;;;;;;7.20;99.90;;;;;;4996605;28;20449;-73
2021/01/28 11:03:52;;;;;;;;;;;7.30;99.90;;;;;;4994152;28;19917;-73
2021/01/28 11:06:17;;;;;;;;;;;7.30;99.90;;;;;;4990303;28;19906;-73
2021/01/28 11:08:45;;;;;;;;;;;7.40;99.90;;;;;;4989535;28;19916;-72
2021/01/28 11:11:11;;;;;;;;;;;7.40;99.90;;;;;;4994776;28;19951;-74
2021/01/28 11:13:36;;;;;;;;;;;7.50;99.90;;;;;;4988630;28;20549;-72
2021/01/28 11:16:02;;;;;;;;;;;7.40;99.90;;;;;;4993176;28;19910;-75
2021/01/28 11:18:28;;;;;;;;;;;7.40;99.90;;;;;;4978545;28;19906;-72
2021/01/28 11:20:53;;;;;;;;;;;7.40;99.90;;;;;;4977152;28;19917;-72
2021/01/28 11:23:19;;;;;;;;;;;7.40;99.90;;;;;;4980117;28;20284;-72
2021/01/28 11:25:44;;;;;;;;;;;7.40;99.90;;;;;;4997099;28;20388;-74
2021/01/28 11:28:10;;;;;;;;;;;7.40;99.90;;;;;;4995328;28;20063;-74
2021/01/28 11:30:35;;;;;;;;;;;7.40;99.90;;;;;;4992690;28;19914;-72
2021/01/28 11:33:02;;;;;;;;;;;7.40;99.90;;;;;;4997475;28;19906;-72
2021/01/28 11:35:32;;;;;;;;;;;7.50;99.90;;;;;;5008052;28;19909;-72
2021/01/28 11:37:58;;;;;;;;;;;7.70;99.90;;;;;;4995264;28;20373;-76
2021/01/28 11:40:27;;;;;;;;;;;7.80;99.90;;;;;;4995498;28;19992;-75
2021/01/28 11:42:56;;;;;;;;;;;8.00;99.90;;;;;;5010204;28;19992;-75
2021/01/28 11:45:26;;;;;;;;;;;8.20;99.90;;;;;;5021257;28;19898;-75
2021/01/28 11:47:51;;;;;;;;;;;8.30;99.90;;;;;;5013511;28;19909;-76
2021/01/28 11:50:21;;;;;;;;;;;8.30;99.90;;;;;;5018647;28;19920;-76
2021/01/28 11:52:46;;;;;;;;;;;8.30;99.90;;;;;;4991817;28;19937;-77
2021/01/28 11:55:14;;;;;;;;;;;8.30;99.90;;;;;;5000988;28;19917;-81
2021/01/28 11:57:40;;;;;;;;;;;8.40;99.90;;;;;;5004801;28;19910;-79
2021/01/28 12:00:07;;;;;;;;;;;8.40;99.90;;;;;;5012559;28;19917;-78
2021/01/28 12:02:33;;;;;;;;;;;8.30;99.90;;;;;;5002032;28;20281;-75
2021/01/28 12:04:58;;;;;;;;;;;8.30;99.90;;;;;;5004768;28;19913;-76
2021/01/28 12:07:24;;;;;;;;;;;8.40;99.90;;;;;;4999542;28;19912;-76
2021/01/28 12:09:49;;;;;;;;;;;8.70;99.90;;;;;;5000576;28;19910;-75
2021/01/28 12:12:15;;;;;;;;;;;8.80;99.90;;;;;;5002824;28;19913;-75
2021/01/28 12:14:40;;;;;;;;;;;8.90;99.90;;;;;;5004549;28;20312;-76
2021/01/28 12:17:06;;;;;;;;;;;8.90;99.90;;;;;;4999999;28;19906;-75
2021/01/28 12:19:34;;;;;;;;;;;9.00;99.90;;;;;;4998522;28;19916;-76
2021/01/28 12:21:59;;;;;;;;;;;8.90;99.90;;;;;;4996710;28;19909;-76
2021/01/28 12:24:25;;;;;;;;;;;8.90;99.90;;;;;;4994796;28;19937;-76
2021/01/28 12:26:52;;;;;;;;;;;9.00;99.90;;;;;;4997830;28;19905;-76
2021/01/28 12:29:18;;;;;;;;;;;9.00;99.90;;;;;;4991648;28;19910;-75
2021/01/28 12:31:46;;;;;;;;;;;8.90;99.90;;;;;;4989692;28;19912;-76
2021/01/28 12:34:11;;;;;;;;;;;9.00;99.90;;;;;;4996014;28;19980;-78
2021/01/28 12:36:37;;;;;;;;;;;9.10;99.90;;;;;;4995205;28;20008;-76
2021/01/28 12:39:03;;;;;;;;;;;9.20;99.90;;;;;;4992479;28;19910;-76
2021/01/28 12:41:28;;;;;;;;;;;9.20;99.90;;;;;;4995456;28;19910;-77
2021/01/28 12:43:54;;;;;;;;;;;9.20;99.90;;;;;;4993988;28;20444;-77
2021/01/28 12:46:20;;;;;;;;;;;9.30;99.90;;;;;;4996712;28;19931;-77
2021/01/28 12:48:45;;;;;;;;;;;9.30;99.90;;;;;;4994971;28;19933;-75
2021/01/28 12:51:14;;;;;;;;;;;9.20;99.90;;;;;;4991484;28;19964;-76
2021/01/28 12:53:39;;;;;;;;;;;9.20;99.90;;;;;;4996884;28;19921;-78
2021/01/28 12:56:05;;;;;;;;;;;9.20;99.90;;;;;;4995924;28;19910;-77
2021/01/28 12:58:31;;;;;;;;;;;9.40;99.90;;;;;;4986341;28;19910;-75
2021/01/28 13:00:57;;;;;;;;;;;9.40;99.90;;;;;;4991458;28;19916;-76
2021/01/28 13:03:25;;;;;;;;;;;9.50;99.90;;;;;;4993945;28;20447;-77
2021/01/28 13:05:53;;;;;;;;;;;9.50;99.90;;;;;;4995619;28;19977;-75
2021/01/28 13:08:25;;;;;;;;;;;9.50;99.90;;;;;;4992610;28;20000;-76
2021/01/28 13:10:51;;;;;;;;;;;9.50;99.90;;;;;;4994403;28;20435;-76
2021/01/28 13:13:16;;;;;;;;;;;9.40;99.90;;;;;;4997957;28;19910;-76
2021/01/28 13:15:42;;;;;;;;;;;9.40;99.90;;;;;;4997484;28;19916;-77
2021/01/28 13:18:07;;;;;;;;;;;9.50;99.90;;;;;;4995080;28;20294;-78
2021/01/28 13:20:33;;;;;;;;;;;9.60;99.90;;;;;;4998743;28;19913;-77
2021/01/28 13:23:03;;;;;;;;;;;9.70;99.90;;;;;;5004003;28;19917;-77
2021/01/28 13:25:28;;;;;;;;;;;9.90;99.90;;;;;;5008123;28;19910;-77
2021/01/28 13:27:57;;;;;;;;;;;10.20;99.90;;;;;;5009671;28;19909;-76
2021/01/28 13:30:23;;;;;;;;;;;10.20;99.90;;;;;;5009301;28;19906;-77
2021/01/28 13:32:49;;;;;;;;;;;10.20;99.90;;;;;;5004764;28;19909;-77
2021/01/28 13:35:19;;;;;;;;;;;10.30;99.90;;;;;;5004301;28;19932;-77
2021/01/28 13:37:45;;;;;;;;;;;10.40;99.90;;;;;;5003117;28;19964;-77
2021/01/28 13:40:11;;;;;;;;;;;10.30;99.90;;;;;;5008356;28;19977;-78
2021/01/28 13:42:37;;;;;;;;;;;10.30;99.90;;;;;;4996395;28;19969;-78
2021/01/28 13:45:03;;;;;;;;;;;10.40;99.90;;;;;;5009782;28;19914;-77
2021/01/28 13:47:29;;;;;;;;;;;10.40;99.90;;;;;;5009067;28;20610;-76
2021/01/28 13:49:54;;;;;;;;;;;10.50;99.90;;;;;;5007127;28;19914;-76
2021/01/28 13:52:20;;;;;;;;;;;10.50;99.90;;;;;;5005769;28;19973;-78
2021/01/28 13:54:46;;;;;;;;;;;10.60;99.90;;;;;;5009563;28;19906;-76
2021/01/28 13:57:11;;;;;;;;;;;10.60;99.90;;;;;;5009755;28;19913;-77
2021/01/28 13:59:38;;;;;;;;;;;10.60;99.90;;;;;;5010155;28;19969;-78
2021/01/28 14:02:05;;;;;;;;;;;10.70;99.90;;;;;;4995360;28;19917;-78
2021/01/28 14:04:40;;;;;;;;;;;10.70;99.90;;;;;;5001731;28;19936;-78
2021/01/28 14:07:06;;;;;;;;;;;10.80;99.90;;;;;;5005221;28;19936;-78
2021/01/28 14:09:31;;;;;;;;;;;10.90;99.90;;;;;;4987889;28;19906;-79
2021/01/28 14:11:57;;;;;;;;;;;10.90;99.90;;;;;;4992088;28;19961;-78
2021/01/28 14:14:23;;;;;;;;;;;11.00;99.90;;;;;;5000506;28;19937;-79
2021/01/28 14:16:48;;;;;;;;;;;11.00;99.90;;;;;;5008891;28;19932;-79
2021/01/28 14:19:14;;;;;;;;;;;11.00;99.90;;;;;;5007631;28;19909;-79
2021/01/28 14:21:41;;;;;;;;;;;11.10;99.90;;;;;;5011957;28;19913;-79
2021/01/28 14:24:07;;;;;;;;;;;11.10;99.90;;;;;;5011770;28;19921;-79
2021/01/28 14:26:33;;;;;;;;;;;11.20;99.90;;;;;;5011219;28;19952;-78
2021/01/28 14:28:58;;;;;;;;;;;11.30;99.90;;;;;;5012904;28;20124;-78
2021/01/28 14:31:24;;;;;;;;;;;11.40;99.90;;;;;;5013967;28;19956;-79
2021/01/28 14:33:50;;;;;;;;;;;11.40;99.90;;;;;;5014431;28;19977;-78